Time;durP1;ratioP1;P1;durP2;ratioP2;P2;SDS_P1;SDS_P2;PMS_P1;PMS_P2;Temp;Humidity;BMP_temperature;BMP_pressure;BME280_temperature;BME280_humidity;BME280_pressure;Samples;Min_cycle;Max_cycle;Signal;HPM_P1;HPM_P2
2022/07/26 00:01:10;;;;;;;;;0.00;0.00;;;;;21.47;49.19;101462.81;5082649;27;45399;-66
2022/07/26 00:03:36;;;;;;;;;0.33;0.33;;;;;21.47;48.87;101468.25;5081055;27;65363;-66
2022/07/26 00:06:01;;;;;;;;;2.00;1.00;;;;;21.47;48.79;101464.66;5081579;27;65671;-66
2022/07/26 00:08:26;;;;;;;;;1.00;1.00;;;;;21.47;49.27;101465.53;5081205;27;70356;-66
2022/07/26 00:10:52;;;;;;;;;3.33;1.00;;;;;21.49;49.30;101462.69;5081533;27;68705;-66
2022/07/26 00:13:19;;;;;;;;;0.00;0.00;;;;;21.51;48.89;101471.53;5081616;27;65408;-66
2022/07/26 00:15:45;;;;;;;;;2.00;1.00;;;;;21.51;49.23;101473.38;5080871;28;45531;-66
2022/07/26 00:18:12;;;;;;;;;1.33;1.00;;;;;21.50;49.59;101469.81;5082246;27;45297;-66
2022/07/26 00:20:37;;;;;;;;;1.00;1.00;;;;;21.46;48.90;101457.56;5082241;27;45423;-66
2022/07/26 00:23:02;;;;;;;;;0.67;0.67;;;;;21.44;49.37;101468.47;5082262;28;45538;-66
2022/07/26 00:25:28;;;;;;;;;1.00;1.00;;;;;21.43;49.28;101468.63;5081334;27;62824;-66
2022/07/26 00:27:54;;;;;;;;;1.00;1.00;;;;;21.42;49.78;101462.38;5081989;27;46411;-66
2022/07/26 00:30:20;;;;;;;;;0.00;0.00;;;;;21.39;49.54;101464.47;5081712;27;45318;-67
2022/07/26 00:32:45;;;;;;;;;1.00;1.00;;;;;21.39;49.21;101469.88;5081695;27;54345;-67
2022/07/26 00:35:10;;;;;;;;;1.00;1.00;;;;;21.38;49.40;101479.84;5081419;27;62259;-67
2022/07/26 00:37:36;;;;;;;;;0.00;0.00;;;;;21.35;49.21;101479.25;5081491;27;56051;-66
2022/07/26 00:40:02;;;;;;;;;0.00;0.00;;;;;21.32;50.05;101475.81;5082059;27;45380;-67
2022/07/26 00:42:28;;;;;;;;;1.00;1.00;;;;;21.32;49.70;101475.81;5082118;27;45346;-67
2022/07/26 00:44:53;;;;;;;;;2.67;1.00;;;;;21.32;49.50;101472.25;5080907;27;59529;-67
2022/07/26 00:47:18;;;;;;;;;2.33;1.00;;;;;21.32;50.02;101469.53;5081955;27;45455;-67
2022/07/26 00:49:44;;;;;;;;;1.00;1.00;;;;;21.30;49.50;101466.97;5080861;27;70609;-66
2022/07/26 00:52:10;;;;;;;;;1.00;1.00;;;;;21.28;49.52;101468.09;5081961;27;45416;-67
2022/07/26 00:54:36;;;;;;;;;1.00;1.00;;;;;21.25;49.31;101468.34;5081799;27;45247;-67
2022/07/26 00:57:02;;;;;;;;;0.00;0.00;;;;;21.24;49.92;101467.50;5081642;27;45615;-67
2022/07/26 00:59:27;;;;;;;;;0.67;0.67;;;;;21.25;49.69;101468.34;5080134;28;45493;-67
2022/07/26 01:01:53;;;;;;;;;2.00;0.00;;;;;21.23;49.29;101459.53;5081939;27;45422;-67
2022/07/26 01:04:18;;;;;;;;;0.00;0.00;;;;;21.23;50.07;101454.94;5080920;27;45711;-67
2022/07/26 01:06:44;;;;;;;;;0.67;0.67;;;;;21.20;49.95;101455.22;5080952;27;60554;-66
2022/07/26 01:09:10;;;;;;;;;1.67;1.00;;;;;21.19;49.74;101458.91;5080485;27;63646;-67
2022/07/26 01:11:35;;;;;;;;;0.00;0.00;;;;;21.14;50.02;101456.59;5081638;27;45436;-66
2022/07/26 01:14:01;;;;;;;;;1.67;1.00;;;;;21.13;49.53;101454.91;5079736;27;54539;-66
2022/07/26 01:16:26;;;;;;;;;2.00;0.00;;;;;21.11;49.29;101456.00;5081320;27;46122;-66
2022/07/26 01:18:51;;;;;;;;;1.00;1.00;;;;;21.08;49.37;101462.53;5080837;27;58530;-66
2022/07/26 01:21:17;;;;;;;;;0.00;0.00;;;;;21.05;49.47;101454.66;5080547;27;64216;-67
2022/07/26 01:23:43;;;;;;;;;3.00;1.33;;;;;21.02;49.82;101459.50;5081127;27;45791;-67
2022/07/26 01:26:09;;;;;;;;;1.33;0.00;;;;;20.98;49.50;101459.72;5081227;27;46079;-67
2022/07/26 01:28:36;;;;;;;;;1.00;1.00;;;;;20.92;50.82;101454.81;5080970;27;45263;-67
2022/07/26 01:31:03;;;;;;;;;1.00;1.00;;;;;20.88;49.96;101456.06;5081149;27;45399;-67
2022/07/26 01:33:28;;;;;;;;;1.67;1.00;;;;;20.85;50.54;101453.66;5081115;27;45344;-66
2022/07/26 01:35:53;;;;;;;;;0.00;0.00;;;;;20.82;50.53;101460.16;5081059;27;46191;-67
2022/07/26 01:38:19;;;;;;;;;0.67;0.67;;;;;20.78;50.64;101460.53;5080396;27;58429;-67
2022/07/26 01:40:44;;;;;;;;;3.00;1.00;;;;;20.76;50.67;101454.41;5080335;27;64065;-67
2022/07/26 01:43:09;;;;;;;;;0.00;0.00;;;;;20.74;50.67;101451.84;5080091;27;66276;-68
2022/07/26 01:45:35;;;;;;;;;1.00;1.00;;;;;20.71;50.57;101459.34;5079898;27;68348;-67
2022/07/26 01:48:00;;;;;;;;;1.33;0.67;;;;;20.69;50.40;101456.75;5080171;27;64899;-68
2022/07/26 01:50:25;;;;;;;;;0.00;0.00;;;;;20.67;50.42;101459.53;5080565;27;53514;-67
2022/07/26 01:52:51;;;;;;;;;2.00;0.00;;;;;20.67;50.89;101459.53;5081003;27;45505;-67
2022/07/26 01:55:16;;;;;;;;;1.00;1.00;;;;;20.72;50.60;101455.66;5079801;27;73139;-67
2022/07/26 01:57:44;;;;;;;;;0.67;0.67;;;;;20.72;50.98;101461.91;5080646;27;45334;-67
2022/07/26 02:00:10;;;;;;;;;1.00;1.00;;;;;20.70;50.38;101457.63;5080865;27;45546;-67
2022/07/26 02:02:36;;;;;;;;;0.00;0.00;;;;;20.69;50.98;101462.16;5080689;27;45518;-67
2022/07/26 02:05:03;;;;;;;;;0.00;0.00;;;;;20.65;50.90;101456.13;5080661;27;45340;-68
2022/07/26 02:07:30;;;;;;;;;1.00;0.00;;;;;20.64;50.83;101450.84;5080331;27;45800;-68
2022/07/26 02:09:56;;;;;;;;;1.00;0.00;;;;;20.63;50.60;101458.09;5080842;27;45354;-67
2022/07/26 02:12:21;;;;;;;;;0.33;0.33;;;;;20.62;50.66;101460.91;5080727;27;45305;-67
2022/07/26 02:14:46;;;;;;;;;0.00;0.00;;;;;20.59;50.93;101462.03;5080542;27;45364;-67
2022/07/26 02:17:12;;;;;;;;;0.33;0.33;;;;;20.57;50.72;101457.72;5079474;27;65045;-67
2022/07/26 02:19:37;;;;;;;;;0.00;0.00;;;;;20.54;50.86;101456.16;5079948;27;63442;-67
2022/07/26 02:22:03;;;;;;;;;0.33;0.33;;;;;20.55;51.27;101457.88;5079938;27;55614;-67
2022/07/26 02:24:29;;;;;;;;;2.00;0.67;;;;;20.56;50.94;101461.41;5080312;27;46295;-68
2022/07/26 02:26:58;;;;;;;;;0.00;0.00;;;;;20.54;50.88;101455.28;5079771;27;45394;-67
2022/07/26 02:29:24;;;;;;;;;1.00;1.00;;;;;20.51;51.06;101464.50;5080293;28;45410;-68
2022/07/26 02:31:50;;;;;;;;;3.00;0.67;;;;;20.49;51.55;101469.16;5080104;27;45385;-67
2022/07/26 02:34:16;;;;;;;;;0.00;0.00;;;;;20.42;51.86;101466.13;5080232;27;45315;-67
2022/07/26 02:36:41;;;;;;;;;0.00;0.00;;;;;20.38;51.37;101467.34;5080084;28;45412;-67
2022/07/26 02:39:06;;;;;;;;;0.00;0.00;;;;;20.38;51.73;101466.50;5079552;27;66324;-67
2022/07/26 02:41:32;;;;;;;;;0.33;0.33;;;;;20.38;51.55;101464.66;5080382;27;45295;-67
2022/07/26 02:43:57;;;;;;;;;0.00;0.00;;;;;20.36;52.57;101461.19;5079197;27;66665;-68
2022/07/26 02:46:23;;;;;;;;;3.00;1.00;;;;;20.31;52.09;101460.72;5079977;27;45429;-67
2022/07/26 02:48:49;;;;;;;;;0.67;0.67;;;;;20.27;52.51;101465.53;5080418;27;45431;-67
2022/07/26 02:51:14;;;;;;;;;0.33;0.33;;;;;20.23;52.63;101471.28;5080217;27;45480;-67
2022/07/26 02:53:40;;;;;;;;;1.00;1.00;;;;;20.18;52.64;101468.97;5079877;28;45332;-67
2022/07/26 02:56:05;;;;;;;;;0.67;0.67;;;;;20.16;52.86;101469.06;5079224;27;67017;-67
2022/07/26 02:58:30;;;;;;;;;0.67;0.67;;;;;20.16;52.50;101477.19;5079881;28;45424;-67
2022/07/26 03:00:56;;;;;;;;;2.00;1.00;;;;;20.15;52.37;101469.22;5079550;27;54572;-67
2022/07/26 03:03:21;;;;;;;;;1.00;1.00;;;;;20.15;53.29;101461.97;5079413;27;61421;-67
2022/07/26 03:05:47;;;;;;;;;0.00;0.00;;;;;20.11;52.72;101468.59;5079130;27;64119;-67
2022/07/26 03:08:12;;;;;;;;;1.00;1.00;;;;;20.10;53.53;101469.59;5079873;27;45380;-68
2022/07/26 03:10:37;;;;;;;;;1.00;1.00;;;;;20.11;53.42;101470.44;5079063;28;64202;-67
2022/07/26 03:13:03;;;;;;;;;1.00;1.00;;;;;20.08;53.12;101471.53;5079727;27;47035;-67
2022/07/26 03:15:28;;;;;;;;;1.00;1.00;;;;;20.06;53.24;101475.34;5078616;27;70209;-67
2022/07/26 03:17:54;;;;;;;;;2.00;0.33;;;;;20.03;53.32;101475.59;5079069;27;64955;-67
2022/07/26 03:20:19;;;;;;;;;0.00;0.00;;;;;19.97;53.82;101471.53;5079909;27;45845;-67
2022/07/26 03:22:45;;;;;;;;;1.00;1.00;;;;;19.94;53.77;101474.47;5079575;27;46035;-67
2022/07/26 03:25:10;;;;;;;;;0.33;0.33;;;;;19.92;54.23;101471.03;5079111;27;58072;-67
2022/07/26 03:27:35;;;;;;;;;0.67;0.67;;;;;19.91;54.35;101472.88;5079548;27;45884;-67
2022/07/26 03:30:01;;;;;;;;;1.00;1.00;;;;;19.90;54.55;101475.72;5079422;27;45298;-67
2022/07/26 03:32:26;;;;;;;;;1.00;1.00;;;;;19.88;54.26;101480.34;5079393;27;46252;-67
2022/07/26 03:34:51;;;;;;;;;1.00;1.00;;;;;19.88;54.01;101475.84;5078749;27;62620;-67
2022/07/26 03:37:17;;;;;;;;;1.00;1.00;;;;;19.90;54.38;101478.41;5079272;27;61147;-68
2022/07/26 03:39:43;;;;;;;;;2.00;1.00;;;;;19.90;54.34;101475.72;5083012;27;45607;-68
2022/07/26 03:42:08;;;;;;;;;1.00;1.00;;;;;19.87;54.17;101479.50;5082914;27;45435;-68
2022/07/26 03:44:33;;;;;;;;;1.00;0.33;;;;;19.85;54.50;101481.47;5082550;27;45362;-68
2022/07/26 03:46:59;;;;;;;;;1.00;1.00;;;;;19.87;54.30;101478.63;5082963;27;45271;-68
2022/07/26 03:49:25;;;;;;;;;1.67;1.00;;;;;19.87;54.78;101482.22;5082831;27;45551;-68
2022/07/26 03:51:50;;;;;;;;;1.00;1.00;;;;;19.88;54.68;101488.47;5082639;28;46218;-69
2022/07/26 03:54:15;;;;;;;;;0.67;0.67;;;;;19.87;54.60;101487.59;5082376;27;54862;-68
2022/07/26 03:56:41;;;;;;;;;2.00;0.33;;;;;19.90;54.40;101487.34;5082194;27;58680;-68
2022/07/26 03:59:08;;;;;;;;;1.00;1.00;;;;;19.92;54.55;101489.94;5082438;27;45570;-68
2022/07/26 04:01:35;;;;;;;;;0.00;0.00;;;;;19.92;54.42;101482.72;5082637;27;45402;-69
2022/07/26 04:04:01;;;;;;;;;3.67;1.00;;;;;19.93;54.91;101486.25;5082366;27;45440;-68
2022/07/26 04:06:27;;;;;;;;;1.00;1.00;;;;;19.95;54.79;101481.59;5082472;27;45394;-68
2022/07/26 04:08:53;;;;;;;;;1.67;1.67;;;;;19.95;54.74;101482.44;5082401;27;45406;-68
2022/07/26 04:11:18;;;;;;;;;1.67;1.00;;;;;19.97;55.08;101493.13;5082369;27;45385;-67
2022/07/26 04:13:44;;;;;;;;;0.33;0.33;;;;;19.98;54.81;101497.56;5082098;27;45319;-67
2022/07/26 04:16:09;;;;;;;;;1.00;1.00;;;;;20.03;54.64;101499.91;5081684;27;66189;-66
2022/07/26 04:18:34;;;;;;;;;1.00;1.00;;;;;20.07;55.09;101496.81;5081452;27;63307;-67
2022/07/26 04:21:00;;;;;;;;;1.67;1.00;;;;;20.11;54.64;101498.28;5082271;27;46344;-67
2022/07/26 04:23:25;;;;;;;;;0.33;0.33;;;;;20.14;54.51;101498.06;5081197;27;69134;-67
2022/07/26 04:25:50;;;;;;;;;1.00;1.00;;;;;20.15;54.82;101486.28;5081454;27;63883;-68
2022/07/26 04:28:16;;;;;;;;;0.67;0.67;;;;;20.16;55.10;101495.22;5082336;27;45332;-67
2022/07/26 04:30:41;;;;;;;;;1.67;1.67;;;;;20.16;54.70;101493.38;5081657;27;45426;-67
2022/07/26 04:33:07;;;;;;;;;1.33;1.33;;;;;20.16;54.67;101493.38;5081532;27;56055;-68
2022/07/26 04:35:33;;;;;;;;;1.00;1.00;;;;;20.17;54.75;101491.56;5081021;28;45304;-67
2022/07/26 04:37:58;;;;;;;;;1.67;1.33;;;;;20.19;54.90;101494.97;5082028;27;45346;-67
2022/07/26 04:40:26;;;;;;;;;2.00;2.00;;;;;20.20;54.78;101498.56;5081440;27;61981;-67
2022/07/26 04:42:52;;;;;;;;;1.00;1.00;;;;;20.19;55.25;101504.94;5081893;27;45389;-67
2022/07/26 04:45:17;;;;;;;;;3.00;2.00;;;;;20.20;55.25;101501.25;5080419;27;61049;-68
2022/07/26 04:47:44;;;;;;;;;0.00;0.00;;;;;20.22;55.07;101507.38;5081474;27;45586;-68
2022/07/26 04:50:12;;;;;;;;;1.00;1.00;;;;;20.25;55.27;101509.84;5080848;27;46426;-68
2022/07/26 04:52:38;;;;;;;;;3.00;1.00;;;;;20.26;55.28;101511.53;5081374;27;45262;-68
2022/07/26 04:55:05;;;;;;;;;2.33;1.00;;;;;20.26;55.63;101504.31;5081548;28;45545;-67
2022/07/26 04:57:31;;;;;;;;;1.33;1.33;;;;;20.26;55.87;101515.13;5080935;27;45400;-68
2022/07/26 04:59:57;;;;;;;;;1.33;1.33;;;;;20.21;55.58;101516.44;5080813;27;45400;-67
2022/07/26 05:02:22;;;;;;;;;1.00;1.00;;;;;20.19;55.37;101513.88;5081117;27;45420;-67
2022/07/26 05:04:48;;;;;;;;;2.00;1.00;;;;;20.21;55.33;101524.56;5080507;27;66677;-68
2022/07/26 05:07:13;;;;;;;;;3.00;2.00;;;;;20.23;55.94;101518.06;5081390;27;45422;-67
2022/07/26 05:09:38;;;;;;;;;1.00;1.00;;;;;20.26;56.24;101520.53;5080385;28;71752;-68
2022/07/26 05:12:04;;;;;;;;;1.33;1.33;;;;;20.28;56.38;101523.09;5080729;27;65095;-68
2022/07/26 05:14:29;;;;;;;;;1.33;1.33;;;;;20.28;55.99;101523.94;5081205;27;45405;-68
2022/07/26 05:16:54;;;;;;;;;1.33;1.33;;;;;20.32;55.58;101525.44;5081383;27;45449;-68
2022/07/26 05:19:20;;;;;;;;;2.00;1.00;;;;;20.36;56.14;101531.44;5080584;27;60443;-68
2022/07/26 05:21:45;;;;;;;;;2.33;1.00;;;;;20.36;55.61;101530.59;5080091;27;67792;-68
2022/07/26 05:24:10;;;;;;;;;3.00;2.00;;;;;20.37;56.14;101533.16;5080390;27;63446;-67
2022/07/26 05:26:36;;;;;;;;;2.00;1.00;;;;;20.39;56.34;101533.03;5080355;27;62721;-67
2022/07/26 05:29:01;;;;;;;;;1.33;1.33;;;;;20.42;56.02;101530.94;5079986;27;69762;-67
2022/07/26 05:31:27;;;;;;;;;2.33;1.00;;;;;20.48;55.30;101540.41;5080932;27;45535;-68
2022/07/26 05:33:53;;;;;;;;;1.00;1.00;;;;;20.54;55.88;101544.47;5080893;27;47643;-67
2022/07/26 05:36:19;;;;;;;;;1.00;1.00;;;;;20.58;55.76;101543.22;5080940;27;45366;-67
2022/07/26 05:38:44;;;;;;;;;1.67;1.00;;;;;20.63;55.55;101543.72;5080769;28;46060;-67
2022/07/26 05:41:10;;;;;;;;;3.33;1.00;;;;;20.69;55.12;101535.13;5079838;27;69237;-67
2022/07/26 05:43:35;;;;;;;;;1.00;0.00;;;;;20.72;55.56;101543.00;5079446;28;45361;-67
2022/07/26 05:46:00;;;;;;;;;4.00;1.00;;;;;20.74;54.96;101541.03;5080454;27;45461;-67
2022/07/26 05:48:25;;;;;;;;;2.00;2.00;;;;;20.73;55.23;101542.03;5080021;27;66320;-67
2022/07/26 05:50:51;;;;;;;;;2.00;2.00;;;;;20.74;55.22;101540.16;5079874;27;68037;-67
2022/07/26 05:53:16;;;;;;;;;2.67;2.00;;;;;20.75;55.13;101537.34;5079874;27;64948;-67
2022/07/26 05:55:42;;;;;;;;;0.67;0.67;;;;;20.81;55.13;101536.00;5079982;27;61275;-68
2022/07/26 05:58:07;;;;;;;;;4.33;2.67;;;;;20.84;55.36;101534.88;5079761;28;68121;-67
2022/07/26 06:00:33;;;;;;;;;1.00;1.00;;;;;20.85;55.50;101537.44;5079641;27;45453;-68
2022/07/26 06:02:58;;;;;;;;;2.67;1.00;;;;;20.87;55.31;101543.59;5079884;27;60885;-68
2022/07/26 06:05:23;;;;;;;;;1.00;1.00;;;;;20.88;54.85;101545.28;5079403;28;45577;-68
2022/07/26 06:07:49;;;;;;;;;1.00;1.00;;;;;20.88;54.65;101547.16;5080118;27;45481;-68
2022/07/26 06:10:14;;;;;;;;;4.00;1.00;;;;;20.90;54.58;101550.56;5079780;28;65040;-68
2022/07/26 06:12:39;;;;;;;;;3.00;1.00;;;;;20.92;55.05;101554.03;5080467;27;45232;-68
2022/07/26 06:15:05;;;;;;;;;2.00;1.00;;;;;20.95;54.67;101553.75;5080313;27;45377;-68
2022/07/26 06:17:30;;;;;;;;;2.67;2.00;;;;;20.92;55.15;101554.88;5079764;27;47249;-68
2022/07/26 06:19:57;;;;;;;;;2.00;2.00;;;;;20.93;54.84;101561.16;5080362;27;45519;-68
2022/07/26 06:22:22;;;;;;;;;4.00;4.00;;;;;20.92;55.03;101560.28;5080247;28;45439;-67
2022/07/26 06:24:47;;;;;;;;;2.67;2.67;;;;;20.92;54.69;101559.44;5079296;27;66970;-68
2022/07/26 06:27:13;;;;;;;;;2.67;1.33;;;;;20.93;54.93;101556.59;5079360;27;66894;-68
2022/07/26 06:29:39;;;;;;;;;3.33;2.00;;;;;20.95;54.72;101559.16;5078898;27;67195;-66
2022/07/26 06:32:04;;;;;;;;;2.67;2.67;;;;;20.94;54.26;101561.03;5080233;27;45420;-68
2022/07/26 06:34:30;;;;;;;;;2.00;2.00;;;;;20.93;55.44;101562.00;5080043;27;45521;-68
2022/07/26 06:36:55;;;;;;;;;1.00;1.00;;;;;20.96;55.05;101566.28;5079196;27;70957;-68
2022/07/26 06:39:20;;;;;;;;;5.00;1.67;;;;;21.02;55.09;101564.94;5079044;27;71221;-68
2022/07/26 06:41:46;;;;;;;;;2.67;1.67;;;;;21.04;54.95;101562.97;5079199;27;63776;-67
2022/07/26 06:44:11;;;;;;;;;2.00;2.00;;;;;21.10;54.46;101570.56;5078855;27;64073;-68
2022/07/26 06:46:36;;;;;;;;;1.00;1.00;;;;;21.14;54.72;101563.91;5078905;27;70906;-67
2022/07/26 06:49:02;;;;;;;;;2.00;2.00;;;;;21.17;55.21;101560.94;5079773;27;45358;-67
2022/07/26 06:51:28;;;;;;;;;3.67;2.67;;;;;21.17;54.12;101569.06;5078670;28;45334;-67
2022/07/26 06:53:53;;;;;;;;;2.00;2.00;;;;;21.21;54.32;101570.56;5079836;27;45566;-68
2022/07/26 06:56:19;;;;;;;;;2.00;2.00;;;;;21.22;54.18;101569.53;5079803;27;46240;-68
2022/07/26 06:58:44;;;;;;;;;1.33;1.33;;;;;21.23;54.48;101573.97;5079434;28;45298;-67
2022/07/26 07:01:10;;;;;;;;;2.00;2.00;;;;;21.24;54.71;101574.84;5080048;27;45434;-67
2022/07/26 07:03:35;;;;;;;;;3.00;2.00;;;;;21.20;54.95;101578.78;5079484;27;45667;-68
2022/07/26 07:06:00;;;;;;;;;2.00;1.00;;;;;21.17;54.52;101568.22;5079600;27;46231;-68
2022/07/26 07:08:26;;;;;;;;;2.33;1.00;;;;;21.21;54.40;101569.69;5078846;27;64229;-68
2022/07/26 07:10:51;;;;;;;;;3.67;2.00;;;;;21.19;54.37;101575.22;5079610;27;45283;-68
2022/07/26 07:13:18;;;;;;;;;4.00;2.33;;;;;21.21;54.71;101577.78;5082516;27;45350;-68
2022/07/26 07:15:43;;;;;;;;;1.67;1.67;;;;;21.23;54.15;101573.13;5083001;27;46450;-68
2022/07/26 07:18:09;;;;;;;;;2.67;2.67;;;;;21.28;54.42;101576.31;5082802;28;45767;-68
2022/07/26 07:20:34;;;;;;;;;1.33;1.33;;;;;21.33;54.31;101582.19;5083160;27;45389;-68
2022/07/26 07:23:00;;;;;;;;;2.00;2.00;;;;;21.40;54.00;101585.25;5082870;27;45503;-67
2022/07/26 07:25:25;;;;;;;;;2.00;2.00;;;;;21.45;53.80;101585.72;5082023;27;67273;-68
2022/07/26 07:27:51;;;;;;;;;1.00;1.00;;;;;21.50;54.31;101586.19;5082733;27;45335;-69
2022/07/26 07:30:16;;;;;;;;;1.00;1.00;;;;;21.51;53.71;101582.50;5082461;28;45473;-67
2022/07/26 07:32:42;;;;;;;;;2.00;2.00;;;;;21.58;53.63;101582.88;5082835;27;45415;-68
2022/07/26 07:35:08;;;;;;;;;2.00;2.00;;;;;21.67;53.82;101586.63;5082682;27;45853;-68
2022/07/26 07:37:34;;;;;;;;;2.33;2.00;;;;;21.75;53.43;101587.69;5082609;27;45505;-69
2022/07/26 07:40:02;;;;;;;;;2.00;2.00;;;;;21.80;53.28;101585.44;5082723;27;45435;-69
2022/07/26 07:42:28;;;;;;;;;4.00;2.33;;;;;21.86;53.59;101591.34;5082593;27;45320;-69
2022/07/26 07:44:53;;;;;;;;;3.67;2.00;;;;;21.94;53.15;101586.97;5081721;27;50205;-68
2022/07/26 07:47:18;;;;;;;;;4.00;2.00;;;;;22.04;52.88;101586.19;5081464;27;70239;-69
2022/07/26 07:49:44;;;;;;;;;4.00;2.00;;;;;22.09;52.38;101586.66;5082266;27;45441;-67
2022/07/26 07:52:09;;;;;;;;;2.00;2.00;;;;;22.13;52.64;101583.53;5081585;27;63046;-68
2022/07/26 07:54:34;;;;;;;;;2.00;2.00;;;;;22.21;52.40;101584.72;5081357;27;71072;-69
2022/07/26 07:57:00;;;;;;;;;1.33;1.33;;;;;22.27;52.21;101593.16;5081638;27;66764;-68
2022/07/26 07:59:26;;;;;;;;;3.00;3.00;;;;;22.31;51.63;101585.63;5081883;27;45347;-68
2022/07/26 08:01:51;;;;;;;;;6.00;2.33;;;;;22.34;51.88;101587.22;5082312;27;45916;-69
2022/07/26 08:04:16;;;;;;;;;2.00;2.00;;;;;22.38;51.33;101588.69;5080972;27;67865;-69
2022/07/26 08:06:42;;;;;;;;;2.67;2.67;;;;;22.39;51.37;101585.84;5082102;27;45417;-69
2022/07/26 08:09:07;;;;;;;;;2.33;2.00;;;;;22.43;50.88;101594.56;5081341;27;58229;-69
2022/07/26 08:11:33;;;;;;;;;1.00;1.00;;;;;22.45;51.31;101585.31;5082100;27;45344;-69
2022/07/26 08:13:58;;;;;;;;;2.67;2.00;;;;;22.50;50.49;101586.75;5081694;27;46311;-68
2022/07/26 08:16:23;;;;;;;;;2.00;2.00;;;;;22.53;50.93;101589.16;5082087;27;45322;-69
2022/07/26 08:18:49;;;;;;;;;3.67;3.00;;;;;22.57;50.50;101591.47;5081353;27;60497;-69
2022/07/26 08:21:14;;;;;;;;;1.67;1.00;;;;;22.63;50.67;101596.38;5081506;27;61104;-69
2022/07/26 08:23:39;;;;;;;;;1.00;1.00;;;;;22.68;50.18;101601.38;5080535;27;71006;-69
2022/07/26 08:26:05;;;;;;;;;5.67;2.67;;;;;22.73;50.28;101604.53;5081757;27;45468;-68
2022/07/26 08:28:30;;;;;;;;;1.67;1.67;;;;;22.78;50.69;101604.13;5081653;27;45394;-69
2022/07/26 08:30:56;;;;;;;;;1.67;1.33;;;;;22.86;49.99;101600.72;5081916;27;45623;-70
2022/07/26 08:33:22;;;;;;;;;3.67;2.00;;;;;22.93;49.75;101596.44;5081862;27;46184;-70
2022/07/26 08:35:47;;;;;;;;;1.00;1.00;;;;;22.96;49.55;101607.03;5082045;27;45307;-69
2022/07/26 08:38:12;;;;;;;;;1.67;1.67;;;;;22.98;49.74;101607.75;5081871;27;45443;-69
2022/07/26 08:40:38;;;;;;;;;3.67;2.33;;;;;23.02;49.74;101606.47;5080916;27;65564;-71
2022/07/26 08:43:03;;;;;;;;;2.67;2.00;;;;;23.06;49.58;101613.34;5080838;27;65084;-69
2022/07/26 08:45:30;;;;;;;;;1.33;1.33;;;;;23.04;49.09;101609.91;5080797;27;67105;-69
2022/07/26 08:48:00;;;;;;;;;2.00;2.00;;;;;23.01;48.78;101615.63;5081941;27;45455;-69
2022/07/26 08:50:26;;;;;;;;;1.00;1.00;;;;;23.00;49.17;101613.03;5081872;28;46124;-70
2022/07/26 08:52:53;;;;;;;;;2.67;2.00;;;;;22.96;49.37;101616.03;5080262;28;45222;-70
2022/07/26 08:55:19;;;;;;;;;1.00;1.00;;;;;22.95;49.27;101611.59;5081648;28;45397;-69
2022/07/26 08:57:45;;;;;;;;;1.00;1.00;;;;;22.93;48.89;101610.00;5081739;27;45466;-69
2022/07/26 09:00:23;;;;;;;;;2.67;2.00;;;;;22.89;48.91;101606.75;5081160;28;45389;-70
2022/07/26 09:02:49;;;;;;;;;1.00;1.00;;;;;22.94;48.89;101603.59;5081359;27;46398;-69
2022/07/26 09:05:18;;;;;;;;;0.00;0.00;;;;;22.93;48.95;101608.19;5081094;27;45397;-69
2022/07/26 09:07:44;;;;;;;;;5.00;4.00;;;;;22.98;48.82;101612.31;5081027;27;45272;-69
2022/07/26 09:10:12;;;;;;;;;2.33;2.33;;;;;23.01;48.67;101621.03;5081136;27;45470;-71
2022/07/26 09:12:40;;;;;;;;;2.33;2.33;;;;;23.02;48.61;101622.75;5081050;27;46095;-69
2022/07/26 09:15:07;;;;;;;;;3.00;3.00;;;;;23.06;48.74;101626.91;5080777;27;45362;-70
2022/07/26 09:17:41;;;;;;;;;2.00;1.00;;;;;23.07;47.45;101627.75;5079772;28;45350;-69
2022/07/26 09:20:12;;;;;;;;;1.00;1.00;;;;;23.03;47.67;101629.88;5081099;27;45316;-69
2022/07/26 09:23:07;;;;;;;;;1.00;1.00;;;;;22.99;48.28;101624.91;5080944;27;46140;-69
2022/07/26 09:25:38;;;;;;;;;2.00;2.00;;;;;22.96;47.78;101629.59;5081122;27;45402;-70
2022/07/26 09:28:21;;;;;;;;;2.00;1.33;;;;;22.97;47.79;101630.44;5080536;27;45247;-70
2022/07/26 09:31:02;;;;;;;;;2.00;2.00;;;;;23.02;48.29;101632.75;5080686;27;45297;-69
2022/07/26 09:33:46;;;;;;;;;1.67;1.67;;;;;23.04;47.91;101631.59;5080688;27;46227;-70
2022/07/26 09:36:12;;;;;;;;;1.00;1.00;;;;;23.10;47.61;101630.19;5079622;27;45460;-70
2022/07/26 09:38:44;;;;;;;;;2.00;2.00;;;;;23.17;47.39;101633.25;5080757;27;45628;-70
2022/07/26 09:41:17;;;;;;;;;2.67;2.00;;;;;23.24;47.45;101631.69;5080858;27;45520;-72
2022/07/26 09:43:43;;;;;;;;;3.33;2.00;;;;;23.28;46.51;101636.72;5080653;27;45373;-70
2022/07/26 09:46:09;;;;;;;;;0.33;0.33;;;;;23.35;46.67;101627.97;5079596;27;70142;-72
2022/07/26 09:48:38;;;;;;;;;1.00;1.00;;;;;23.42;46.62;101632.72;5080916;27;45354;-71
2022/07/26 09:51:03;;;;;;;;;3.00;1.00;;;;;23.53;46.30;101636.28;5080672;27;45416;-72
2022/07/26 09:53:37;;;;;;;;;2.00;2.00;;;;;23.63;45.71;101631.72;5079271;28;46546;-70
2022/07/26 09:56:03;;;;;;;;;1.67;1.00;;;;;23.74;45.71;101634.31;5080626;28;45417;-71
2022/07/26 09:58:29;;;;;;;;;4.00;2.00;;;;;23.82;45.34;101636.31;5080085;28;51020;-70
2022/07/26 10:00:54;;;;;;;;;1.00;1.00;;;;;23.93;45.24;101633.47;5080281;27;52550;-69
2022/07/26 10:03:20;;;;;;;;;1.00;1.00;;;;;24.07;44.58;101637.59;5080317;27;45917;-71
2022/07/26 10:05:45;;;;;;;;;1.33;1.33;;;;;24.20;43.62;101641.88;5079526;27;69637;-70
2022/07/26 10:08:11;;;;;;;;;2.33;1.33;;;;;24.33;43.91;101639.69;5079112;28;45356;-71
2022/07/26 10:10:59;;;;;;;;;1.00;1.00;;;;;24.48;42.71;101642.78;5080545;27;45307;-70
2022/07/26 10:13:26;;;;;;;;;1.00;1.00;;;;;24.57;42.82;101647.34;5078798;28;45406;-72
2022/07/26 10:15:52;;;;;;;;;1.33;1.00;;;;;24.68;42.57;101642.75;5080427;27;45395;-70
2022/07/26 10:18:35;;;;;;;;;1.00;1.00;;;;;24.86;43.18;101643.69;5080370;27;45401;-70
2022/07/26 10:21:13;;;;;;;;;1.00;1.00;;;;;25.03;42.52;101639.31;5080406;27;45302;-70
2022/07/26 10:23:40;;;;;;;;;1.33;1.33;;;;;25.17;41.87;101637.09;5079888;28;46162;-72
2022/07/26 10:26:07;;;;;;;;;1.67;1.33;;;;;25.27;40.78;101633.28;5080084;27;45278;-69
2022/07/26 10:28:35;;;;;;;;;2.00;2.00;;;;;25.37;40.99;101638.69;5079954;27;45343;-70
2022/07/26 10:31:19;;;;;;;;;4.33;1.33;;;;;25.48;40.28;101642.22;5080063;27;45464;-69
2022/07/26 10:33:46;;;;;;;;;1.33;1.33;;;;;25.57;39.83;101644.84;5079869;28;46425;-71
2022/07/26 10:36:35;;;;;;;;;1.00;1.00;;;;;25.61;39.49;101645.41;5080035;27;45544;-70
2022/07/26 10:39:12;;;;;;;;;3.00;1.67;;;;;25.66;39.34;101643.06;5080181;27;45355;-70
2022/07/26 10:41:39;;;;;;;;;1.00;1.00;;;;;25.78;38.64;101631.94;5080001;27;45516;-70
2022/07/26 10:44:18;;;;;;;;;1.67;1.00;;;;;25.88;38.46;101640.88;5079546;27;46216;-69
2022/07/26 10:46:55;;;;;;;;;1.00;1.00;;;;;25.88;38.41;101635.44;5080913;28;45426;-69
2022/07/26 10:49:27;;;;;;;;;1.00;1.00;;;;;25.95;37.84;101641.09;5083697;27;45298;-69
2022/07/26 10:52:04;;;;;;;;;3.00;1.00;;;;;26.01;36.99;101644.06;5083490;27;45327;-69
2022/07/26 10:54:29;;;;;;;;;1.00;1.00;;;;;26.03;37.18;101643.88;5083392;27;46351;-70
2022/07/26 10:56:55;;;;;;;;;2.00;1.00;;;;;26.04;37.74;101643.75;5083523;27;45763;-70
2022/07/26 10:59:33;;;;;;;;;0.67;0.67;;;;;26.10;36.31;101636.84;5082314;27;64741;-67
2022/07/26 11:01:58;;;;;;;;;0.67;0.67;;;;;26.13;36.46;101639.22;5083039;27;45532;-68
2022/07/26 11:04:24;;;;;;;;;0.00;0.00;;;;;26.23;36.54;101634.53;5082211;27;65845;-69
2022/07/26 11:06:50;;;;;;;;;1.00;1.00;;;;;26.32;35.76;101640.91;5082693;27;45477;-68
2022/07/26 11:09:18;;;;;;;;;0.00;0.00;;;;;26.41;35.76;101639.06;5069710;28;45441;-69
2022/07/26 11:11:45;;;;;;;;;5.67;5.67;;;;;26.51;35.54;101638.97;5083187;27;45251;-70
2022/07/26 11:14:12;;;;;;;;;12.67;12.00;;;;;26.51;35.98;101641.69;5082787;28;46513;-69
2022/07/26 11:16:42;;;;;;;;;2.33;1.00;;;;;26.44;36.19;101640.63;5083032;27;45166;-69
2022/07/26 11:19:15;;;;;;;;;0.00;0.00;;;;;26.31;36.42;101635.59;5083435;27;45394;-70
2022/07/26 11:21:41;;;;;;;;;0.00;0.00;;;;;26.17;36.14;101635.16;5083113;28;45452;-68